• Join FlightAware (Why Join?)
  • Login
  • US Flag 
06:03AM EDT


 

Airport Tracker/Info


-or-


 

Live Flight TrackerFlight Track Log ✈ N400PU ✈ 16-Dec-2013 ✈ KIAD - KLAF

Flight Track Log - Related Links

Times and Time Zones

All times are in EST time to prevent confusion due to time zone crossing. See the N400PU flight status page for this flight to view local times or setup timezone preferences in your user account.

Time Position Orientation Groundspeed Altitude Reporting Facility
EST Latitude Longitude Course Direction KTS MPH feet Rate Location/Type
05:37PM 38.8833 -77.4667 270° West 235 270 2,800  Level Potomac TRACON
05:39PM 38.7944 -77.6025 230° Southwest 237 273 9,300 2,700 Climbing Washington Center
05:40PM 38.8161 -77.6831 289° West 207 238 11,900 2,520 Climbing Washington Center
05:41PM 38.8456 -77.7772 292° West 251 289 14,400 2,220 Climbing Washington Center
05:42PM 39.0546 -78.0052 270° West  Level Estimated
05:42PM 38.8708 -77.8819 287° West 298 343 16,400  Level Washington Center
05:43PM 38.9000 -77.9894 289° West 318 366 17,900 1,860 Climbing Washington Center
05:44PM 38.9269 -78.0944 288° West 323 372 20,200 2,160 Climbing Washington Center
05:45PM 38.9539 -78.1969 289° West 317 365 22,300 1,980 Climbing Washington Center
05:46PM 38.9661 -78.3094 278° West 311 358 24,300 1,980 Climbing Washington Center
05:47PM 38.9739 -78.4219 275° West 317 365 26,300 1,860 Climbing Washington Center
05:48PM 38.9814 -78.5450 275° West 317 365 28,100 1,620 Climbing Washington Center
05:49PM 38.9889 -78.6575 275° West 322 371 29,600 1,440 Climbing Washington Center
05:50PM 38.9964 -78.7753 275° West 327 376 31,000 1,320 Climbing Washington Center
05:51PM 39.0036 -78.8933 275° West 327 376 32,300 1,260 Climbing Washington Center
05:52PM 39.0086 -79.0083 273° West 327 376 33,600 1,140 Climbing Washington Center
05:53PM 39.0181 -79.1236 276° West 327 376 34,600 960 Climbing Washington Center
05:54PM 39.0228 -79.2442 273° West 327 376 35,600 900 Climbing Washington Center
05:55PM 39.0314 -79.3622 275° West 332 382 36,500 780 Climbing Washington Center
05:56PM 39.0383 -79.4775 274° West 332 382 37,200 660 Climbing Washington Center
05:57PM 39.0469 -79.5928 276° West 332 382 37,900 360 Climbing Washington Center
05:58PM 39.0594 -79.7164 277° West 332 382 38,000  Climbing Washington Center
05:59PM 39.0656 -79.8425 274° West 345 397 38,000  Level Washington Center
06:00PM 39.0733 -79.9714 274° West 356 410 38,000  Level Washington Center
06:01PM 39.0792 -80.1422 273° West 373 429 38,000  Level Indianapolis Center
06:02PM 39.0867 -80.2753 274° West 373 429 38,000  Level Indianapolis Center
06:03PM 39.0958 -80.4092 275° West 375 432 38,000  Level Indianapolis Center
06:04PM 39.1006 -80.5417 273° West 373 429 38,000  Level Indianapolis Center
06:05PM 39.1117 -80.6758 276° West 378 435 38,000  Level Indianapolis Center
06:06PM 39.1514 -80.8331 288° West 386 444 38,000  Level Indianapolis Center
06:08PM 39.1825 -80.9644 287° West 384 442 38,000  Level Indianapolis Center
06:09PM 39.2122 -81.0947 286° West 381 438 38,000  Level Indianapolis Center
06:10PM 39.2433 -81.2236 287° West 378 435 38,000  Level Indianapolis Center
06:11PM 39.2728 -81.3544 286° West 381 438 38,000  Level Indianapolis Center
06:12PM 39.3094 -81.5092 287° West 378 435 38,000  Level Indianapolis Center
06:13PM 39.3386 -81.6375 286° West 376 433 38,000  Level Indianapolis Center
06:14PM 39.3675 -81.7667 286° West 376 433 38,000  Level Indianapolis Center
06:15PM 39.3975 -81.8964 287° West 377 434 38,000  Level Indianapolis Center
06:16PM 39.4275 -82.0283 286° West 382 440 38,000  Level Indianapolis Center
06:17PM 39.4581 -82.1661 286° West 381 438 38,000  Level Indianapolis Center
06:18PM 39.4878 -82.2983 286° West 383 441 38,000  Level Indianapolis Center
06:19PM 39.5164 -82.4300 286° West 382 440 38,000  Level Indianapolis Center
06:20PM 39.5467 -82.5631 286° West 385 443 38,000  Level Indianapolis Center
06:21PM 39.5808 -82.7239 285° West 387 445 38,000  Level Indianapolis Center
06:22PM 39.6103 -82.8581 286° West 387 445 38,000  Level Indianapolis Center
06:23PM 39.6403 -82.9922 286° West 388 447 38,000  Level Indianapolis Center
06:24PM 39.6686 -83.1278 285° West 389 448 38,000  Level Indianapolis Center
06:25PM 39.6975 -83.2633 286° West 389 448 38,000  Level Indianapolis Center
06:26PM 39.7261 -83.4003 285° West 390 449 38,000  Level Indianapolis Center
06:27PM 39.7564 -83.5383 286° West 387 445 38,000 -120 Level Indianapolis Center
06:28PM 39.7864 -83.6903 284° West 388 447 37,800 -540 Descending Indianapolis Center
06:29PM 39.8128 -83.8119 286° West 386 444 37,000 -900 Descending Indianapolis Center
06:30PM 39.8456 -83.9692 285° West 377 434 36,000 -540 Descending Indianapolis Center
06:31PM 39.8703 -84.0950 284° West 361 415 36,000 -180 Level Indianapolis Center
06:32PM 39.8961 -84.2222 285° West 364 419 35,700 -540 Descending Indianapolis Center
06:33PM 39.9217 -84.3483 285° West 362 417 34,900 -960 Descending Indianapolis Center
06:34PM 39.9475 -84.4742 285° West 360 414 33,800 -1,140 Descending Indianapolis Center
06:35PM 39.9722 -84.5989 285° West 358 412 32,600 -1,320 Descending Indianapolis Center
06:36PM 40.0025 -84.7536 284° West 365 420 31,100 -1,440 Descending Indianapolis Center
06:37PM 40.0439 -84.8756 294° West 369 425 29,700 -1,320 Descending Indianapolis Center
06:38PM 40.0836 -84.9739 298° West 350 403 28,400 -1,800 Descending Indianapolis Center
06:40PM 40.1339 -85.1075 296° West 345 397 26,000 -1,920 Descending Indianapolis Center
06:41PM 40.1517 -85.2331 281° West 352 405 24,500 -1,500 Descending Indianapolis Center
06:42PM 40.1728 -85.3578 283° West 352 405 23,000 -1,500 Descending Indianapolis Center
06:43PM 40.1917 -85.4772 282° West 342 394 21,500 -1,500 Descending Indianapolis Center
06:44PM 40.2103 -85.5964 282° West 338 389 20,000 -1,560 Descending Indianapolis Center
06:45PM 40.2286 -85.7133 282° West 332 382 18,400 -1,740 Descending Indianapolis Center
06:46PM 40.2500 -85.8503 282° West 324 373 16,500 -1,680 Descending Indianapolis Center
06:47PM 40.2675 -85.9681 281° West 336 387 14,900 -1,680 Descending Chicago Center
06:47PM 40.2706 -85.9922 279° West 335 386 14,500 -1,920 Descending Chicago Center
06:48PM 40.2878 -86.1075 281° West 314 361 12,800 -1,740 Descending Chicago Center
06:49PM 40.3042 -86.2081 282° West 305 351 11,200 -1,800 Descending Chicago Center
06:49PM 40.3050 -86.2175 277° West 290 334 11,000 -1,860 Descending Chicago Center
06:50PM 40.3169 -86.3028 280° West 229 264 9,200 -1,920 Descending Chicago Center
06:51PM 40.3244 -86.3903 276° West 227 261 7,200 -1,860 Descending Chicago Center
06:52PM 40.3308 -86.4625 277° West 232 267 5,500 -1,920 Descending Chicago Center
06:52PM 40.3300 -86.4697 261° West 229 264 5,300 -1,920 Descending Chicago Center
06:53PM 40.3247 -86.5567 265° West 229 264 3,600 -1,200 Descending Chicago Center
06:54PM 40.3261 -86.6386 271° West 234 269 3,000 -600 Descending Chicago Center
06:54PM 40.3272 -86.6269 83° East 228 262 3,000  Level Chicago Center
06:55PM 40.3269 -86.7286 270° West 237 273 3,000  Level Chicago Center
06:55PM 40.3289 -86.7292 348° North 232 267 3,000  Level Chicago Center
06:56PM 40.3281 -86.8106 269° West 234 269 3,000  Level Chicago Center
06:56PM 40.3308 -86.8139 318° Northwest 234 269 3,000  Level Chicago Center
06:57PM 40.3325 -86.8981 272° West 234 269 3,000  Level Chicago Center
06:58PM 40.3319 -86.9800 270° West 230 265 3,000  Level Chicago Center
06:58PM 40.3339 -86.9806 348° North 232 267 3,000  Level Chicago Center
06:59PM 40.3356 -87.0456 272° West 160 184 3,000  Level Chicago Center
06:59PM 40.3364 -87.0442 52° Northeast 203 234 3,000  Level Chicago Center
07:00PM 40.3372 -87.1058 271° West 149 171 3,000  Level Chicago Center
07:00PM 40.3397 -87.1006 58° Northeast 172 198 3,000  Level Chicago Center
07:01PM 40.3392 -87.1606 269° West 154 177 3,000  Level Chicago Center
07:01PM 40.3444 -87.1664 320° Northwest 159 183 3,000  Level Chicago Center
07:02PM 40.3831 -87.1608 North 168 193 3,000  Level Chicago Center
07:02PM 40.3903 -87.1572 21° North 170 196 3,000  Level Chicago Center
07:03PM 40.4292 -87.1453 13° North 167 192 3,000 -120 Level Chicago Center
07:04PM 40.4300 -87.0850 89° East 161 185 2,800 -600 Descending Chicago Center
07:05PM 40.4236 -87.0381 100° East 128 147 2,000 -780 Descending Chicago Center
07:06PM 40.4192 -86.9914 97° East 123 142 1,300 -720 Descending Chicago Center